sensor_id;sensor_type;location;lat;lon;timestamp;P1;durP1;ratioP1;P2;durP2;ratioP2
3698;SDS011;1865;50.918;7.092;2023-06-10T00:01:56;12.00;;;6.63;;
3698;SDS011;1865;50.918;7.092;2023-06-10T00:04:24;14.23;;;7.10;;
3698;SDS011;1865;50.918;7.092;2023-06-10T00:06:51;13.07;;;7.23;;
3698;SDS011;1865;50.918;7.092;2023-06-10T00:09:17;10.80;;;6.50;;
3698;SDS011;1865;50.918;7.092;2023-06-10T00:11:43;11.07;;;6.17;;
3698;SDS011;1865;50.918;7.092;2023-06-10T00:14:09;12.40;;;6.33;;
3698;SDS011;1865;50.918;7.092;2023-06-10T00:16:35;12.27;;;6.30;;
3698;SDS011;1865;50.918;7.092;2023-06-10T00:19:01;13.47;;;6.70;;
3698;SDS011;1865;50.918;7.092;2023-06-10T00:21:28;12.37;;;6.97;;
3698;SDS011;1865;50.918;7.092;2023-06-10T00:24:05;13.00;;;6.93;;
3698;SDS011;1865;50.918;7.092;2023-06-10T00:26:32;16.07;;;7.13;;
3698;SDS011;1865;50.918;7.092;2023-06-10T00:28:58;15.10;;;7.80;;
3698;SDS011;1865;50.918;7.092;2023-06-10T00:31:24;15.13;;;7.03;;
3698;SDS011;1865;50.918;7.092;2023-06-10T00:33:53;11.00;;;7.27;;
3698;SDS011;1865;50.918;7.092;2023-06-10T00:36:19;13.27;;;7.70;;
3698;SDS011;1865;50.918;7.092;2023-06-10T00:38:44;17.87;;;7.40;;
3698;SDS011;1865;50.918;7.092;2023-06-10T00:41:10;11.90;;;7.27;;
3698;SDS011;1865;50.918;7.092;2023-06-10T00:43:35;12.57;;;7.70;;
3698;SDS011;1865;50.918;7.092;2023-06-10T00:46:01;10.83;;;6.90;;
3698;SDS011;1865;50.918;7.092;2023-06-10T00:48:27;14.70;;;7.47;;
3698;SDS011;1865;50.918;7.092;2023-06-10T00:50:53;19.93;;;7.70;;
3698;SDS011;1865;50.918;7.092;2023-06-10T00:53:19;14.50;;;7.50;;
3698;SDS011;1865;50.918;7.092;2023-06-10T00:55:46;13.10;;;7.70;;
3698;SDS011;1865;50.918;7.092;2023-06-10T00:58:12;16.53;;;7.40;;
3698;SDS011;1865;50.918;7.092;2023-06-10T01:00:38;12.37;;;7.50;;
3698;SDS011;1865;50.918;7.092;2023-06-10T01:03:03;11.30;;;7.50;;
3698;SDS011;1865;50.918;7.092;2023-06-10T01:05:33;15.80;;;7.27;;
3698;SDS011;1865;50.918;7.092;2023-06-10T01:11:05;20.10;;;10.00;;
3698;SDS011;1865;50.918;7.092;2023-06-10T01:13:32;23.17;;;11.67;;
3698;SDS011;1865;50.918;7.092;2023-06-10T01:16:00;31.63;;;17.13;;
3698;SDS011;1865;50.918;7.092;2023-06-10T01:18:30;34.23;;;14.57;;
3698;SDS011;1865;50.918;7.092;2023-06-10T01:20:56;20.87;;;11.97;;
3698;SDS011;1865;50.918;7.092;2023-06-10T01:23:22;18.70;;;10.70;;
3698;SDS011;1865;50.918;7.092;2023-06-10T01:25:49;18.63;;;9.97;;
3698;SDS011;1865;50.918;7.092;2023-06-10T01:31:15;14.90;;;9.10;;
3698;SDS011;1865;50.918;7.092;2023-06-10T01:33:50;15.60;;;9.10;;
3698;SDS011;1865;50.918;7.092;2023-06-10T01:36:18;19.00;;;10.87;;
3698;SDS011;1865;50.918;7.092;2023-06-10T01:38:45;16.60;;;11.00;;
3698;SDS011;1865;50.918;7.092;2023-06-10T01:41:12;22.13;;;11.60;;
3698;SDS011;1865;50.918;7.092;2023-06-10T01:43:39;23.20;;;13.37;;
3698;SDS011;1865;50.918;7.092;2023-06-10T01:46:05;27.00;;;13.47;;
3698;SDS011;1865;50.918;7.092;2023-06-10T01:48:32;17.67;;;11.10;;
3698;SDS011;1865;50.918;7.092;2023-06-10T01:50:58;21.00;;;11.90;;
3698;SDS011;1865;50.918;7.092;2023-06-10T01:53:23;17.40;;;10.97;;
3698;SDS011;1865;50.918;7.092;2023-06-10T01:55:49;20.10;;;10.23;;
3698;SDS011;1865;50.918;7.092;2023-06-10T01:58:15;13.40;;;9.20;;
3698;SDS011;1865;50.918;7.092;2023-06-10T02:00:41;14.87;;;9.27;;
3698;SDS011;1865;50.918;7.092;2023-06-10T02:03:07;17.47;;;10.60;;
3698;SDS011;1865;50.918;7.092;2023-06-10T02:05:32;21.40;;;12.87;;
3698;SDS011;1865;50.918;7.092;2023-06-10T02:07:58;22.27;;;12.77;;
3698;SDS011;1865;50.918;7.092;2023-06-10T02:10:24;19.43;;;12.30;;
3698;SDS011;1865;50.918;7.092;2023-06-10T02:12:50;19.87;;;12.70;;
3698;SDS011;1865;50.918;7.092;2023-06-10T02:15:15;19.13;;;10.80;;
3698;SDS011;1865;50.918;7.092;2023-06-10T02:17:41;22.30;;;11.60;;
3698;SDS011;1865;50.918;7.092;2023-06-10T02:20:06;17.70;;;11.47;;
3698;SDS011;1865;50.918;7.092;2023-06-10T02:22:35;17.07;;;12.20;;
3698;SDS011;1865;50.918;7.092;2023-06-10T02:25:01;17.43;;;11.93;;
3698;SDS011;1865;50.918;7.092;2023-06-10T02:27:28;24.17;;;11.87;;
3698;SDS011;1865;50.918;7.092;2023-06-10T02:29:54;18.73;;;11.50;;
3698;SDS011;1865;50.918;7.092;2023-06-10T02:32:19;20.33;;;12.20;;
3698;SDS011;1865;50.918;7.092;2023-06-10T02:34:45;21.37;;;12.73;;
3698;SDS011;1865;50.918;7.092;2023-06-10T02:37:10;19.60;;;13.27;;
3698;SDS011;1865;50.918;7.092;2023-06-10T02:39:36;24.43;;;16.07;;
3698;SDS011;1865;50.918;7.092;2023-06-10T02:42:02;22.90;;;15.10;;
3698;SDS011;1865;50.918;7.092;2023-06-10T02:44:28;27.80;;;15.53;;
3698;SDS011;1865;50.918;7.092;2023-06-10T02:46:53;22.60;;;12.93;;
3698;SDS011;1865;50.918;7.092;2023-06-10T02:49:18;16.97;;;12.83;;
3698;SDS011;1865;50.918;7.092;2023-06-10T02:51:44;21.10;;;11.87;;
3698;SDS011;1865;50.918;7.092;2023-06-10T02:54:09;19.97;;;11.53;;
3698;SDS011;1865;50.918;7.092;2023-06-10T02:56:35;18.77;;;13.60;;
3698;SDS011;1865;50.918;7.092;2023-06-10T02:59:01;24.43;;;14.23;;
3698;SDS011;1865;50.918;7.092;2023-06-10T03:01:27;28.03;;;15.17;;
3698;SDS011;1865;50.918;7.092;2023-06-10T03:03:52;19.27;;;12.40;;
3698;SDS011;1865;50.918;7.092;2023-06-10T03:06:18;21.13;;;12.40;;
3698;SDS011;1865;50.918;7.092;2023-06-10T03:08:44;16.60;;;10.90;;
3698;SDS011;1865;50.918;7.092;2023-06-10T03:11:10;16.87;;;10.90;;
3698;SDS011;1865;50.918;7.092;2023-06-10T03:13:38;16.07;;;11.50;;
3698;SDS011;1865;50.918;7.092;2023-06-10T03:16:04;25.53;;;14.47;;
3698;SDS011;1865;50.918;7.092;2023-06-10T03:18:30;24.90;;;15.27;;
3698;SDS011;1865;50.918;7.092;2023-06-10T03:20:55;28.57;;;16.37;;
3698;SDS011;1865;50.918;7.092;2023-06-10T03:23:22;22.13;;;14.37;;
3698;SDS011;1865;50.918;7.092;2023-06-10T03:25:47;23.10;;;15.27;;
3698;SDS011;1865;50.918;7.092;2023-06-10T03:28:13;20.97;;;14.43;;
3698;SDS011;1865;50.918;7.092;2023-06-10T03:30:38;19.70;;;13.17;;
3698;SDS011;1865;50.918;7.092;2023-06-10T03:33:04;18.27;;;12.53;;
3698;SDS011;1865;50.918;7.092;2023-06-10T03:35:30;17.50;;;12.80;;
3698;SDS011;1865;50.918;7.092;2023-06-10T03:37:57;20.10;;;12.07;;
3698;SDS011;1865;50.918;7.092;2023-06-10T03:40:23;18.33;;;12.87;;
3698;SDS011;1865;50.918;7.092;2023-06-10T03:42:48;23.20;;;12.80;;
3698;SDS011;1865;50.918;7.092;2023-06-10T03:45:14;22.63;;;12.70;;
3698;SDS011;1865;50.918;7.092;2023-06-10T03:47:39;23.57;;;12.90;;
3698;SDS011;1865;50.918;7.092;2023-06-10T03:50:06;22.73;;;12.63;;
3698;SDS011;1865;50.918;7.092;2023-06-10T03:52:33;29.63;;;15.47;;
3698;SDS011;1865;50.918;7.092;2023-06-10T03:54:59;17.97;;;13.80;;
3698;SDS011;1865;50.918;7.092;2023-06-10T03:57:24;22.33;;;15.57;;
3698;SDS011;1865;50.918;7.092;2023-06-10T03:59:50;20.20;;;14.60;;
3698;SDS011;1865;50.918;7.092;2023-06-10T04:02:16;19.00;;;12.57;;
3698;SDS011;1865;50.918;7.092;2023-06-10T04:04:41;25.30;;;13.13;;
3698;SDS011;1865;50.918;7.092;2023-06-10T04:07:07;18.00;;;11.60;;
3698;SDS011;1865;50.918;7.092;2023-06-10T04:09:33;17.20;;;12.50;;
3698;SDS011;1865;50.918;7.092;2023-06-10T04:11:59;17.03;;;11.90;;
3698;SDS011;1865;50.918;7.092;2023-06-10T04:14:25;16.20;;;11.90;;
3698;SDS011;1865;50.918;7.092;2023-06-10T04:16:50;16.43;;;11.30;;
3698;SDS011;1865;50.918;7.092;2023-06-10T04:19:16;15.87;;;11.90;;
3698;SDS011;1865;50.918;7.092;2023-06-10T04:21:42;20.17;;;12.50;;
3698;SDS011;1865;50.918;7.092;2023-06-10T04:24:07;20.60;;;12.57;;
3698;SDS011;1865;50.918;7.092;2023-06-10T04:26:34;22.40;;;12.60;;
3698;SDS011;1865;50.918;7.092;2023-06-10T04:29:00;17.53;;;11.63;;
3698;SDS011;1865;50.918;7.092;2023-06-10T04:31:26;17.50;;;11.83;;
3698;SDS011;1865;50.918;7.092;2023-06-10T04:33:52;16.87;;;11.80;;
3698;SDS011;1865;50.918;7.092;2023-06-10T04:36:18;17.83;;;11.20;;
3698;SDS011;1865;50.918;7.092;2023-06-10T04:38:44;17.80;;;11.40;;
3698;SDS011;1865;50.918;7.092;2023-06-10T04:41:09;16.87;;;11.57;;
3698;SDS011;1865;50.918;7.092;2023-06-10T04:43:35;20.53;;;11.77;;
3698;SDS011;1865;50.918;7.092;2023-06-10T04:46:00;15.20;;;11.50;;
3698;SDS011;1865;50.918;7.092;2023-06-10T04:48:26;19.40;;;11.63;;
3698;SDS011;1865;50.918;7.092;2023-06-10T04:50:52;15.70;;;11.77;;
3698;SDS011;1865;50.918;7.092;2023-06-10T04:53:17;18.50;;;12.50;;
3698;SDS011;1865;50.918;7.092;2023-06-10T04:55:43;19.80;;;12.63;;
3698;SDS011;1865;50.918;7.092;2023-06-10T04:58:09;20.63;;;12.20;;
3698;SDS011;1865;50.918;7.092;2023-06-10T05:00:34;17.50;;;13.17;;
3698;SDS011;1865;50.918;7.092;2023-06-10T05:03:00;18.50;;;12.93;;
3698;SDS011;1865;50.918;7.092;2023-06-10T05:05:25;19.40;;;14.33;;
3698;SDS011;1865;50.918;7.092;2023-06-10T05:07:51;17.30;;;12.33;;
3698;SDS011;1865;50.918;7.092;2023-06-10T05:10:16;17.47;;;13.30;;
3698;SDS011;1865;50.918;7.092;2023-06-10T05:12:42;15.20;;;12.03;;
3698;SDS011;1865;50.918;7.092;2023-06-10T05:15:08;19.77;;;12.70;;
3698;SDS011;1865;50.918;7.092;2023-06-10T05:17:34;16.10;;;11.50;;
3698;SDS011;1865;50.918;7.092;2023-06-10T05:20:02;18.80;;;11.50;;
3698;SDS011;1865;50.918;7.092;2023-06-10T05:22:28;19.10;;;10.70;;
3698;SDS011;1865;50.918;7.092;2023-06-10T05:24:53;14.10;;;10.80;;
3698;SDS011;1865;50.918;7.092;2023-06-10T05:27:19;17.00;;;10.40;;
3698;SDS011;1865;50.918;7.092;2023-06-10T05:29:46;13.53;;;10.63;;
3698;SDS011;1865;50.918;7.092;2023-06-10T05:32:11;19.10;;;10.80;;
3698;SDS011;1865;50.918;7.092;2023-06-10T05:34:37;16.63;;;10.93;;
3698;SDS011;1865;50.918;7.092;2023-06-10T05:37:02;19.07;;;12.93;;
3698;SDS011;1865;50.918;7.092;2023-06-10T05:39:28;14.83;;;10.60;;
3698;SDS011;1865;50.918;7.092;2023-06-10T05:41:54;16.73;;;10.97;;
3698;SDS011;1865;50.918;7.092;2023-06-10T05:44:19;17.23;;;11.07;;
3698;SDS011;1865;50.918;7.092;2023-06-10T05:46:45;17.63;;;11.43;;
3698;SDS011;1865;50.918;7.092;2023-06-10T05:49:11;17.90;;;9.67;;
3698;SDS011;1865;50.918;7.092;2023-06-10T05:51:36;15.67;;;10.73;;
3698;SDS011;1865;50.918;7.092;2023-06-10T05:54:02;15.93;;;9.67;;
3698;SDS011;1865;50.918;7.092;2023-06-10T05:56:28;13.90;;;10.00;;
3698;SDS011;1865;50.918;7.092;2023-06-10T05:58:53;14.00;;;9.80;;
3698;SDS011;1865;50.918;7.092;2023-06-10T06:01:19;14.03;;;9.50;;
3698;SDS011;1865;50.918;7.092;2023-06-10T06:03:45;16.73;;;9.90;;
3698;SDS011;1865;50.918;7.092;2023-06-10T06:06:10;20.50;;;9.70;;
3698;SDS011;1865;50.918;7.092;2023-06-10T06:08:36;15.20;;;9.53;;
3698;SDS011;1865;50.918;7.092;2023-06-10T06:11:01;17.20;;;8.90;;
3698;SDS011;1865;50.918;7.092;2023-06-10T06:13:27;13.70;;;8.70;;
3698;SDS011;1865;50.918;7.092;2023-06-10T06:15:52;14.90;;;8.23;;
3698;SDS011;1865;50.918;7.092;2023-06-10T06:18:18;15.07;;;8.40;;
3698;SDS011;1865;50.918;7.092;2023-06-10T06:20:44;14.10;;;8.17;;
3698;SDS011;1865;50.918;7.092;2023-06-10T06:23:09;13.70;;;8.33;;
3698;SDS011;1865;50.918;7.092;2023-06-10T06:25:35;12.83;;;8.37;;
3698;SDS011;1865;50.918;7.092;2023-06-10T06:28:03;11.50;;;7.33;;
3698;SDS011;1865;50.918;7.092;2023-06-10T06:30:30;15.37;;;7.80;;
3698;SDS011;1865;50.918;7.092;2023-06-10T06:32:56;14.80;;;8.30;;
3698;SDS011;1865;50.918;7.092;2023-06-10T06:35:21;13.60;;;8.53;;
3698;SDS011;1865;50.918;7.092;2023-06-10T06:37:47;13.13;;;7.33;;
3698;SDS011;1865;50.918;7.092;2023-06-10T06:40:12;13.23;;;8.00;;
3698;SDS011;1865;50.918;7.092;2023-06-10T06:42:39;13.47;;;7.97;;
3698;SDS011;1865;50.918;7.092;2023-06-10T06:45:04;13.60;;;8.30;;
3698;SDS011;1865;50.918;7.092;2023-06-10T06:47:30;16.30;;;8.30;;
3698;SDS011;1865;50.918;7.092;2023-06-10T06:49:56;12.83;;;8.20;;
3698;SDS011;1865;50.918;7.092;2023-06-10T06:52:21;14.67;;;8.23;;
3698;SDS011;1865;50.918;7.092;2023-06-10T06:54:47;17.07;;;8.27;;
3698;SDS011;1865;50.918;7.092;2023-06-10T06:57:13;12.27;;;7.40;;
3698;SDS011;1865;50.918;7.092;2023-06-10T06:59:38;12.70;;;7.10;;
3698;SDS011;1865;50.918;7.092;2023-06-10T07:02:04;12.40;;;7.47;;
3698;SDS011;1865;50.918;7.092;2023-06-10T07:04:30;12.70;;;7.80;;
3698;SDS011;1865;50.918;7.092;2023-06-10T07:06:55;13.53;;;7.60;;
3698;SDS011;1865;50.918;7.092;2023-06-10T07:09:21;15.90;;;7.10;;
3698;SDS011;1865;50.918;7.092;2023-06-10T07:11:46;11.90;;;6.90;;
3698;SDS011;1865;50.918;7.092;2023-06-10T07:14:12;11.37;;;6.50;;
3698;SDS011;1865;50.918;7.092;2023-06-10T07:16:38;13.07;;;6.73;;
3698;SDS011;1865;50.918;7.092;2023-06-10T07:19:03;16.00;;;6.53;;
3698;SDS011;1865;50.918;7.092;2023-06-10T07:21:29;11.67;;;6.30;;
3698;SDS011;1865;50.918;7.092;2023-06-10T07:23:55;12.00;;;5.53;;
3698;SDS011;1865;50.918;7.092;2023-06-10T07:26:23;11.90;;;5.90;;
3698;SDS011;1865;50.918;7.092;2023-06-10T07:28:50;14.93;;;7.20;;
3698;SDS011;1865;50.918;7.092;2023-06-10T07:31:16;12.70;;;6.00;;
3698;SDS011;1865;50.918;7.092;2023-06-10T07:33:41;11.33;;;5.83;;
3698;SDS011;1865;50.918;7.092;2023-06-10T07:36:08;14.00;;;6.00;;
3698;SDS011;1865;50.918;7.092;2023-06-10T07:38:34;13.13;;;5.93;;
3698;SDS011;1865;50.918;7.092;2023-06-10T07:41:00;10.57;;;5.60;;
3698;SDS011;1865;50.918;7.092;2023-06-10T07:43:25;11.03;;;5.70;;
3698;SDS011;1865;50.918;7.092;2023-06-10T07:45:51;14.50;;;5.83;;
3698;SDS011;1865;50.918;7.092;2023-06-10T07:48:17;12.97;;;5.20;;
3698;SDS011;1865;50.918;7.092;2023-06-10T07:50:42;12.47;;;5.70;;
3698;SDS011;1865;50.918;7.092;2023-06-10T07:53:08;11.83;;;5.33;;
3698;SDS011;1865;50.918;7.092;2023-06-10T07:55:33;10.83;;;5.20;;
3698;SDS011;1865;50.918;7.092;2023-06-10T07:57:59;11.47;;;5.20;;
3698;SDS011;1865;50.918;7.092;2023-06-10T08:00:24;11.23;;;5.30;;
3698;SDS011;1865;50.918;7.092;2023-06-10T08:02:50;12.07;;;4.93;;
3698;SDS011;1865;50.918;7.092;2023-06-10T08:05:16;13.10;;;6.77;;
3698;SDS011;1865;50.918;7.092;2023-06-10T08:07:42;16.37;;;6.17;;
3698;SDS011;1865;50.918;7.092;2023-06-10T08:10:08;14.10;;;6.00;;
3698;SDS011;1865;50.918;7.092;2023-06-10T08:12:34;13.57;;;6.43;;
3698;SDS011;1865;50.918;7.092;2023-06-10T08:15:00;11.60;;;6.00;;
3698;SDS011;1865;50.918;7.092;2023-06-10T08:17:26;11.07;;;5.47;;
3698;SDS011;1865;50.918;7.092;2023-06-10T08:19:52;12.47;;;5.83;;
3698;SDS011;1865;50.918;7.092;2023-06-10T08:22:17;12.60;;;6.30;;
3698;SDS011;1865;50.918;7.092;2023-06-10T08:24:43;10.83;;;6.00;;
3698;SDS011;1865;50.918;7.092;2023-06-10T08:27:08;14.10;;;5.47;;
3698;SDS011;1865;50.918;7.092;2023-06-10T08:29:35;10.70;;;5.40;;
3698;SDS011;1865;50.918;7.092;2023-06-10T08:32:00;12.27;;;5.60;;
3698;SDS011;1865;50.918;7.092;2023-06-10T08:34:26;18.10;;;6.40;;
3698;SDS011;1865;50.918;7.092;2023-06-10T08:36:51;12.03;;;5.60;;
3698;SDS011;1865;50.918;7.092;2023-06-10T08:39:20;17.93;;;5.83;;
3698;SDS011;1865;50.918;7.092;2023-06-10T08:42:10;14.63;;;5.67;;
3698;SDS011;1865;50.918;7.092;2023-06-10T08:44:53;13.73;;;6.40;;
3698;SDS011;1865;50.918;7.092;2023-06-10T08:47:22;14.10;;;5.77;;
3698;SDS011;1865;50.918;7.092;2023-06-10T08:49:49;11.57;;;5.87;;
3698;SDS011;1865;50.918;7.092;2023-06-10T08:52:16;11.77;;;6.30;;
3698;SDS011;1865;50.918;7.092;2023-06-10T08:54:43;12.07;;;6.23;;
3698;SDS011;1865;50.918;7.092;2023-06-10T08:57:23;10.90;;;6.10;;
3698;SDS011;1865;50.918;7.092;2023-06-10T08:59:50;12.67;;;5.97;;
3698;SDS011;1865;50.918;7.092;2023-06-10T09:02:21;11.67;;;5.90;;
3698;SDS011;1865;50.918;7.092;2023-06-10T09:04:48;13.73;;;5.90;;
3698;SDS011;1865;50.918;7.092;2023-06-10T09:07:15;16.27;;;6.37;;
3698;SDS011;1865;50.918;7.092;2023-06-10T09:09:44;11.70;;;6.40;;
3698;SDS011;1865;50.918;7.092;2023-06-10T09:12:10;12.30;;;6.47;;
3698;SDS011;1865;50.918;7.092;2023-06-10T09:14:37;13.50;;;6.10;;
3698;SDS011;1865;50.918;7.092;2023-06-10T09:17:03;13.40;;;7.10;;
3698;SDS011;1865;50.918;7.092;2023-06-10T09:19:29;11.93;;;6.10;;
3698;SDS011;1865;50.918;7.092;2023-06-10T09:21:54;10.97;;;5.63;;
3698;SDS011;1865;50.918;7.092;2023-06-10T09:24:23;14.80;;;5.43;;
3698;SDS011;1865;50.918;7.092;2023-06-10T09:26:49;11.13;;;5.43;;
3698;SDS011;1865;50.918;7.092;2023-06-10T09:29:16;15.50;;;5.57;;
3698;SDS011;1865;50.918;7.092;2023-06-10T09:31:42;11.47;;;5.13;;
3698;SDS011;1865;50.918;7.092;2023-06-10T09:34:09;12.67;;;5.90;;
3698;SDS011;1865;50.918;7.092;2023-06-10T09:36:37;11.60;;;5.73;;
3698;SDS011;1865;50.918;7.092;2023-06-10T09:39:04;14.07;;;5.97;;
3698;SDS011;1865;50.918;7.092;2023-06-10T09:41:38;11.17;;;5.20;;
3698;SDS011;1865;50.918;7.092;2023-06-10T09:44:11;16.70;;;5.87;;
3698;SDS011;1865;50.918;7.092;2023-06-10T09:46:41;12.27;;;6.13;;
3698;SDS011;1865;50.918;7.092;2023-06-10T09:49:07;12.53;;;5.60;;
3698;SDS011;1865;50.918;7.092;2023-06-10T09:51:33;15.20;;;6.30;;
3698;SDS011;1865;50.918;7.092;2023-06-10T09:53:59;17.20;;;5.83;;
3698;SDS011;1865;50.918;7.092;2023-06-10T09:56:33;13.57;;;5.80;;
3698;SDS011;1865;50.918;7.092;2023-06-10T09:59:03;12.23;;;5.80;;
3698;SDS011;1865;50.918;7.092;2023-06-10T10:01:31;11.83;;;5.90;;
3698;SDS011;1865;50.918;7.092;2023-06-10T10:03:58;11.30;;;5.80;;
3698;SDS011;1865;50.918;7.092;2023-06-10T10:06:24;16.20;;;5.60;;
3698;SDS011;1865;50.918;7.092;2023-06-10T10:08:51;14.67;;;5.60;;
3698;SDS011;1865;50.918;7.092;2023-06-10T10:11:19;15.87;;;5.90;;
3698;SDS011;1865;50.918;7.092;2023-06-10T10:13:47;12.60;;;5.60;;
3698;SDS011;1865;50.918;7.092;2023-06-10T10:16:15;16.83;;;5.03;;
3698;SDS011;1865;50.918;7.092;2023-06-10T10:18:46;12.53;;;5.17;;
3698;SDS011;1865;50.918;7.092;2023-06-10T10:21:21;13.87;;;5.60;;
3698;SDS011;1865;50.918;7.092;2023-06-10T10:23:53;14.07;;;5.80;;
3698;SDS011;1865;50.918;7.092;2023-06-10T10:26:27;12.93;;;5.43;;
3698;SDS011;1865;50.918;7.092;2023-06-10T10:29:07;17.23;;;5.20;;
3698;SDS011;1865;50.918;7.092;2023-06-10T10:31:39;13.00;;;5.60;;
3698;SDS011;1865;50.918;7.092;2023-06-10T10:34:12;13.27;;;5.10;;
3698;SDS011;1865;50.918;7.092;2023-06-10T10:36:41;14.63;;;5.10;;
3698;SDS011;1865;50.918;7.092;2023-06-10T10:39:07;12.20;;;5.03;;
3698;SDS011;1865;50.918;7.092;2023-06-10T10:41:33;13.03;;;5.23;;
3698;SDS011;1865;50.918;7.092;2023-06-10T10:44:01;12.10;;;5.50;;
3698;SDS011;1865;50.918;7.092;2023-06-10T10:46:27;15.37;;;5.73;;
3698;SDS011;1865;50.918;7.092;2023-06-10T10:48:53;11.10;;;4.90;;
3698;SDS011;1865;50.918;7.092;2023-06-10T10:51:19;11.80;;;5.53;;
3698;SDS011;1865;50.918;7.092;2023-06-10T10:53:49;13.63;;;4.47;;
3698;SDS011;1865;50.918;7.092;2023-06-10T10:56:37;11.50;;;4.60;;
3698;SDS011;1865;50.918;7.092;2023-06-10T10:59:03;10.93;;;5.30;;
3698;SDS011;1865;50.918;7.092;2023-06-10T11:01:39;14.17;;;5.47;;
3698;SDS011;1865;50.918;7.092;2023-06-10T11:04:07;12.33;;;5.37;;
3698;SDS011;1865;50.918;7.092;2023-06-10T11:06:36;10.73;;;4.63;;
3698;SDS011;1865;50.918;7.092;2023-06-10T11:09:24;13.43;;;4.40;;
3698;SDS011;1865;50.918;7.092;2023-06-10T11:11:56;10.43;;;4.33;;
3698;SDS011;1865;50.918;7.092;2023-06-10T11:14:27;12.63;;;4.43;;
3698;SDS011;1865;50.918;7.092;2023-06-10T11:16:53;13.83;;;4.50;;
3698;SDS011;1865;50.918;7.092;2023-06-10T11:19:34;9.50;;;4.37;;
3698;SDS011;1865;50.918;7.092;2023-06-10T11:22:01;9.93;;;4.30;;
3698;SDS011;1865;50.918;7.092;2023-06-10T11:24:34;13.90;;;4.10;;
3698;SDS011;1865;50.918;7.092;2023-06-10T11:27:22;10.63;;;4.10;;
3698;SDS011;1865;50.918;7.092;2023-06-10T11:30:17;10.23;;;4.40;;
3698;SDS011;1865;50.918;7.092;2023-06-10T11:32:44;10.73;;;4.20;;
3698;SDS011;1865;50.918;7.092;2023-06-10T11:35:10;14.10;;;4.50;;
3698;SDS011;1865;50.918;7.092;2023-06-10T11:37:36;12.30;;;4.47;;
3698;SDS011;1865;50.918;7.092;2023-06-10T11:40:02;11.10;;;4.77;;
3698;SDS011;1865;50.918;7.092;2023-06-10T11:42:28;15.03;;;4.50;;
3698;SDS011;1865;50.918;7.092;2023-06-10T11:44:54;15.13;;;4.20;;
3698;SDS011;1865;50.918;7.092;2023-06-10T11:47:20;11.23;;;4.43;;
3698;SDS011;1865;50.918;7.092;2023-06-10T11:49:55;10.53;;;4.17;;
3698;SDS011;1865;50.918;7.092;2023-06-10T11:52:39;10.53;;;4.33;;
3698;SDS011;1865;50.918;7.092;2023-06-10T11:55:06;11.70;;;4.77;;
3698;SDS011;1865;50.918;7.092;2023-06-10T11:57:35;10.70;;;4.80;;
3698;SDS011;1865;50.918;7.092;2023-06-10T12:00:04;13.37;;;4.97;;
3698;SDS011;1865;50.918;7.092;2023-06-10T12:02:31;10.37;;;4.00;;
3698;SDS011;1865;50.918;7.092;2023-06-10T12:05:09;16.13;;;4.70;;
3698;SDS011;1865;50.918;7.092;2023-06-10T12:07:36;18.57;;;9.90;;
3698;SDS011;1865;50.918;7.092;2023-06-10T12:10:01;19.63;;;4.97;;
3698;SDS011;1865;50.918;7.092;2023-06-10T12:12:27;12.67;;;4.50;;
3698;SDS011;1865;50.918;7.092;2023-06-10T12:14:54;13.27;;;4.80;;
3698;SDS011;1865;50.918;7.092;2023-06-10T12:19:59;10.37;;;3.80;;
3698;SDS011;1865;50.918;7.092;2023-06-10T12:22:25;12.83;;;4.30;;
3698;SDS011;1865;50.918;7.092;2023-06-10T12:25:02;10.17;;;4.67;;
3698;SDS011;1865;50.918;7.092;2023-06-10T12:27:29;11.30;;;4.03;;
3698;SDS011;1865;50.918;7.092;2023-06-10T12:29:56;11.93;;;4.63;;
3698;SDS011;1865;50.918;7.092;2023-06-10T12:32:37;10.97;;;4.03;;
3698;SDS011;1865;50.918;7.092;2023-06-10T12:35:07;16.50;;;3.80;;
3698;SDS011;1865;50.918;7.092;2023-06-10T12:37:34;9.70;;;4.17;;
3698;SDS011;1865;50.918;7.092;2023-06-10T12:40:04;9.67;;;3.87;;
3698;SDS011;1865;50.918;7.092;2023-06-10T12:42:34;15.10;;;3.90;;
3698;SDS011;1865;50.918;7.092;2023-06-10T12:45:02;11.17;;;3.67;;
3698;SDS011;1865;50.918;7.092;2023-06-10T12:47:32;14.03;;;4.43;;
3698;SDS011;1865;50.918;7.092;2023-06-10T12:49:59;16.30;;;3.97;;
3698;SDS011;1865;50.918;7.092;2023-06-10T12:52:26;19.10;;;4.43;;
3698;SDS011;1865;50.918;7.092;2023-06-10T12:54:52;10.93;;;4.43;;
3698;SDS011;1865;50.918;7.092;2023-06-10T12:57:19;11.90;;;3.73;;
3698;SDS011;1865;50.918;7.092;2023-06-10T12:59:44;9.87;;;3.90;;
3698;SDS011;1865;50.918;7.092;2023-06-10T13:02:15;11.50;;;4.20;;
3698;SDS011;1865;50.918;7.092;2023-06-10T13:04:43;10.50;;;3.83;;
3698;SDS011;1865;50.918;7.092;2023-06-10T13:07:09;11.43;;;4.07;;
3698;SDS011;1865;50.918;7.092;2023-06-10T13:09:35;10.23;;;3.97;;
3698;SDS011;1865;50.918;7.092;2023-06-10T13:12:01;10.00;;;4.00;;
3698;SDS011;1865;50.918;7.092;2023-06-10T13:14:27;13.03;;;4.40;;
3698;SDS011;1865;50.918;7.092;2023-06-10T13:16:52;9.80;;;4.00;;
3698;SDS011;1865;50.918;7.092;2023-06-10T13:19:19;10.83;;;4.10;;
3698;SDS011;1865;50.918;7.092;2023-06-10T13:21:46;12.57;;;5.50;;
3698;SDS011;1865;50.918;7.092;2023-06-10T13:24:12;10.00;;;3.60;;
3698;SDS011;1865;50.918;7.092;2023-06-10T13:26:38;11.90;;;4.37;;
3698;SDS011;1865;50.918;7.092;2023-06-10T13:29:03;10.50;;;3.70;;
3698;SDS011;1865;50.918;7.092;2023-06-10T13:31:29;12.13;;;3.77;;
3698;SDS011;1865;50.918;7.092;2023-06-10T13:33:54;14.10;;;3.93;;
3698;SDS011;1865;50.918;7.092;2023-06-10T13:36:20;11.63;;;4.47;;
3698;SDS011;1865;50.918;7.092;2023-06-10T13:38:46;10.00;;;3.90;;
3698;SDS011;1865;50.918;7.092;2023-06-10T13:41:12;11.43;;;3.60;;
3698;SDS011;1865;50.918;7.092;2023-06-10T13:43:38;12.50;;;3.87;;
3698;SDS011;1865;50.918;7.092;2023-06-10T13:46:04;9.70;;;3.20;;
3698;SDS011;1865;50.918;7.092;2023-06-10T13:48:29;10.87;;;3.67;;
3698;SDS011;1865;50.918;7.092;2023-06-10T13:50:56;7.83;;;2.80;;
3698;SDS011;1865;50.918;7.092;2023-06-10T13:53:22;13.20;;;2.70;;
3698;SDS011;1865;50.918;7.092;2023-06-10T13:55:47;7.43;;;2.85;;
3698;SDS011;1865;50.918;7.092;2023-06-10T13:58:13;8.00;;;2.47;;
3698;SDS011;1865;50.918;7.092;2023-06-10T14:00:38;7.43;;;2.80;;
3698;SDS011;1865;50.918;7.092;2023-06-10T14:03:04;7.75;;;2.33;;
3698;SDS011;1865;50.918;7.092;2023-06-10T14:05:29;8.88;;;2.20;;
3698;SDS011;1865;50.918;7.092;2023-06-10T14:07:55;6.15;;;2.10;;
3698;SDS011;1865;50.918;7.092;2023-06-10T14:10:21;6.25;;;2.20;;
3698;SDS011;1865;50.918;7.092;2023-06-10T14:12:46;7.95;;;2.33;;
3698;SDS011;1865;50.918;7.092;2023-06-10T14:15:12;10.32;;;2.55;;
3698;SDS011;1865;50.918;7.092;2023-06-10T14:17:37;11.90;;;2.60;;
3698;SDS011;1865;50.918;7.092;2023-06-10T14:20:03;7.30;;;2.70;;
3698;SDS011;1865;50.918;7.092;2023-06-10T14:22:29;7.68;;;2.92;;
3698;SDS011;1865;50.918;7.092;2023-06-10T14:24:54;10.02;;;2.95;;
3698;SDS011;1865;50.918;7.092;2023-06-10T14:27:20;13.13;;;2.70;;
3698;SDS011;1865;50.918;7.092;2023-06-10T14:29:46;8.63;;;3.03;;
3698;SDS011;1865;50.918;7.092;2023-06-10T14:32:11;9.37;;;3.10;;
3698;SDS011;1865;50.918;7.092;2023-06-10T14:34:37;10.20;;;3.20;;
3698;SDS011;1865;50.918;7.092;2023-06-10T14:37:04;9.50;;;2.93;;
3698;SDS011;1865;50.918;7.092;2023-06-10T14:39:32;10.50;;;3.97;;
3698;SDS011;1865;50.918;7.092;2023-06-10T14:41:58;12.17;;;3.67;;
3698;SDS011;1865;50.918;7.092;2023-06-10T14:44:23;13.77;;;3.80;;
3698;SDS011;1865;50.918;7.092;2023-06-10T14:46:49;9.20;;;3.40;;
3698;SDS011;1865;50.918;7.092;2023-06-10T14:49:15;12.17;;;3.60;;
3698;SDS011;1865;50.918;7.092;2023-06-10T14:51:40;13.07;;;3.80;;
3698;SDS011;1865;50.918;7.092;2023-06-10T14:54:06;11.77;;;3.93;;
3698;SDS011;1865;50.918;7.092;2023-06-10T14:56:31;9.33;;;3.40;;
3698;SDS011;1865;50.918;7.092;2023-06-10T14:58:57;11.57;;;3.77;;
3698;SDS011;1865;50.918;7.092;2023-06-10T15:01:22;10.50;;;3.50;;
3698;SDS011;1865;50.918;7.092;2023-06-10T15:03:48;11.27;;;3.87;;
3698;SDS011;1865;50.918;7.092;2023-06-10T15:06:13;13.37;;;3.97;;